Time;durP1;ratioP1;P1;durP2;ratioP2;P2;SDS_P1;SDS_P2;PMS_P1;PMS_P2;Temp;Humidity;BMP_temperature;BMP_pressure;BME280_temperature;BME280_humidity;BME280_pressure;Samples;Min_cycle;Max_cycle;Signal;HPM_P1;HPM_P2
2022/10/05 00:01:21;;;;;;;11.90;6.80;;;15.30;98.70;;;;;;5070545;28;20036;-82
2022/10/05 00:03:47;;;;;;;9.18;6.40;;;15.20;98.40;;;;;;5072226;28;20024;-82
2022/10/05 00:06:13;;;;;;;7.80;6.63;;;15.20;97.80;;;;;;5072215;28;20393;-81
2022/10/05 00:08:38;;;;;;;7.40;6.00;;;15.10;97.80;;;;;;5072033;28;20028;-82
2022/10/05 00:11:08;;;;;;;8.73;5.95;;;15.20;97.10;;;;;;5071933;28;20025;-81
2022/10/05 00:13:34;;;;;;;8.40;6.10;;;15.30;98.80;;;;;;5072075;28;20017;-82
2022/10/05 00:16:19;;;;;;;7.32;6.13;;;15.10;96.90;;;;;;5071838;28;20059;-82
2022/10/05 00:18:50;;;;;;;10.68;5.93;;;15.10;99.00;;;;;;5072079;28;20029;-82
2022/10/05 00:21:19;;;;;;;8.35;6.20;;;15.00;98.80;;;;;;5072138;28;20037;-81
2022/10/05 00:23:45;;;;;;;10.65;6.28;;;15.00;99.10;;;;;;5071380;28;20027;-81
2022/10/05 00:26:19;;;;;;;9.43;6.18;;;14.90;97.80;;;;;;5072515;28;20104;-82
2022/10/05 00:28:45;;;;;;;7.78;5.70;;;14.90;98.80;;;;;;5071989;28;20099;-82
2022/10/05 00:31:17;;;;;;;7.65;5.57;;;14.90;98.00;;;;;;5071672;28;20116;-82
2022/10/05 00:33:43;;;;;;;9.35;5.97;;;15.00;99.90;;;;;;5071515;28;20493;-81
2022/10/05 00:36:09;;;;;;;6.95;5.60;;;14.70;97.90;;;;;;5072250;28;20024;-81
2022/10/05 00:38:34;;;;;;;7.05;5.40;;;14.70;97.60;;;;;;5071806;28;20056;-81
2022/10/05 00:41:09;;;;;;;8.15;5.50;;;14.70;97.20;;;;;;5071998;28;20114;-81
2022/10/05 00:43:46;;;;;;;6.90;4.82;;;14.70;99.60;;;;;;5071866;28;20382;-81
2022/10/05 00:46:35;;;;;;;6.20;5.00;;;14.70;99.90;;;;;;5072128;28;20054;-82
2022/10/05 00:49:40;;;;;;;6.53;4.05;;;14.70;99.80;;;;;;5075883;28;20017;-81
2022/10/05 00:52:31;;;;;;;8.73;4.40;;;14.70;99.90;;;;;;5053154;28;20401;-81
2022/10/05 00:54:57;;;;;;;5.40;4.45;;;14.60;99.90;;;;;;5053846;28;20021;-82
2022/10/05 00:57:37;;;;;;;6.65;4.60;;;14.70;99.30;;;;;;5053224;28;20048;-81
2022/10/05 01:00:16;;;;;;;6.22;5.28;;;14.60;99.90;;;;;;5052920;28;20053;-81
2022/10/05 01:02:56;;;;;;;7.78;5.00;;;14.50;99.90;;;;;;5053089;28;20099;-82
2022/10/05 01:05:44;;;;;;;6.45;4.30;;;14.60;99.90;;;;;;5053076;28;20035;-82
2022/10/05 01:08:50;;;;;;;7.88;4.65;;;14.40;99.90;;;;;;5053818;28;20036;-81
2022/10/05 01:11:33;;;;;;;5.10;4.60;;;14.50;99.90;;;;;;5052969;28;20028;-81
2022/10/05 01:14:18;;;;;;;7.95;4.40;;;14.30;99.90;;;;;;5053229;28;20024;-81
2022/10/05 01:16:54;;;;;;;5.25;4.10;;;14.40;99.90;;;;;;5052994;28;20509;-81
2022/10/05 01:20:01;;;;;;;4.55;4.03;;;14.60;99.90;;;;;;5052866;28;20414;-81
2022/10/05 01:22:40;;;;;;;8.35;5.10;;;14.60;99.90;;;;;;4993297;28;20161;-81
2022/10/05 01:25:20;;;;;;;7.20;4.60;;;14.40;99.90;;;;;;4993529;28;20037;-81
2022/10/05 01:27:50;;;;;;;7.35;4.47;;;14.30;99.90;;;;;;4990844;28;20042;-81
2022/10/05 01:30:19;;;;;;;5.90;5.30;;;14.40;99.90;;;;;;4976373;28;20065;-81
2022/10/05 01:32:53;;;;;;;6.03;5.13;;;14.40;99.90;;;;;;4993104;28;20043;-80
2022/10/05 01:35:46;;;;;;;7.70;5.72;;;14.30;99.90;;;;;;4993152;28;20125;-81
2022/10/05 01:38:26;;;;;;;9.18;4.57;;;14.20;99.90;;;;;;4993258;28;20026;-81
2022/10/05 01:41:12;;;;;;;5.40;4.90;;;14.30;99.90;;;;;;4993751;28;20082;-81
2022/10/05 01:43:47;;;;;;;5.72;5.13;;;14.30;99.90;;;;;;4993146;28;20030;-81
2022/10/05 01:46:42;;;;;;;6.57;5.10;;;14.20;99.90;;;;;;4993073;28;20041;-81
2022/10/05 01:49:16;;;;;;;6.05;4.75;;;14.20;99.90;;;;;;4934879;29;20060;-81
2022/10/05 01:51:42;;;;;;;10.25;4.70;;;14.10;99.90;;;;;;4934937;29;20387;-81
2022/10/05 01:54:25;;;;;;;4.63;4.15;;;14.20;99.90;;;;;;4935173;29;20067;-81
2022/10/05 01:56:59;;;;;;;7.93;4.95;;;14.20;99.90;;;;;;4934837;29;20035;-81
2022/10/05 02:00:02;;;;;;;7.60;4.32;;;14.30;99.90;;;;;;4968884;28;20125;-81
2022/10/05 02:02:30;;;;;;;6.82;4.40;;;14.30;99.90;;;;;;4997968;28;20040;-82
2022/10/05 02:05:21;;;;;;;5.20;4.50;;;14.30;99.90;;;;;;5012416;28;20033;-81
2022/10/05 02:08:00;;;;;;;7.00;4.57;;;14.30;99.90;;;;;;5012241;28;20501;-81
2022/10/05 02:10:57;;;;;;;5.65;4.10;;;14.30;99.90;;;;;;5012262;28;20569;-81
2022/10/05 02:13:35;;;;;;;6.00;4.30;;;14.30;99.90;;;;;;5012108;28;20109;-81
2022/10/05 02:16:07;;;;;;;6.82;3.95;;;14.10;99.90;;;;;;5012150;28;20109;-81
2022/10/05 02:18:39;;;;;;;6.78;4.10;;;14.10;99.90;;;;;;5011962;28;20422;-81
2022/10/05 02:21:07;;;;;;;6.32;4.25;;;14.20;99.90;;;;;;5012324;28;20064;-81
2022/10/05 02:23:36;;;;;;;11.50;4.65;;;14.40;99.90;;;;;;5011850;28;20018;-81
2022/10/05 02:26:03;;;;;;;8.27;4.38;;;14.30;99.90;;;;;;5037071;28;20431;-81
2022/10/05 02:28:43;;;;;;;6.38;4.43;;;14.30;99.90;;;;;;5074160;28;20453;-82
2022/10/05 02:31:13;;;;;;;7.72;4.03;;;14.20;99.90;;;;;;5072206;28;20447;-81
2022/10/05 02:33:39;;;;;;;5.82;4.60;;;14.30;99.90;;;;;;5073453;28;20107;-81
2022/10/05 02:36:15;;;;;;;7.70;4.50;;;14.10;99.90;;;;;;5074007;28;20476;-81
2022/10/05 02:39:17;;;;;;;9.35;5.68;;;14.20;99.90;;;;;;5073904;28;20060;-81
2022/10/05 02:42:10;;;;;;;5.82;5.00;;;14.10;99.90;;;;;;5073449;28;20031;-81
2022/10/05 02:44:50;;;;;;;8.07;4.93;;;14.10;99.90;;;;;;5073397;28;20477;-81
2022/10/05 02:47:37;;;;;;;5.63;4.40;;;14.00;99.90;;;;;;5073333;28;20044;-84
2022/10/05 02:50:18;;;;;;;7.95;5.30;;;14.00;99.90;;;;;;5073428;28;20059;-81
2022/10/05 02:52:52;;;;;;;5.63;4.80;;;13.80;99.90;;;;;;5073200;28;20491;-81
2022/10/05 02:55:24;;;;;;;6.78;4.82;;;14.00;99.90;;;;;;5072967;28;20036;-81
2022/10/05 02:58:12;;;;;;;6.22;5.20;;;13.90;99.90;;;;;;5073194;28;20035;-81
2022/10/05 03:01:01;;;;;;;9.07;4.95;;;13.90;99.90;;;;;;5072981;28;20039;-81
2022/10/05 03:03:43;;;;;;;7.13;4.45;;;14.00;99.90;;;;;;5073145;28;20039;-82
2022/10/05 03:06:20;;;;;;;7.85;4.82;;;14.00;99.90;;;;;;5073513;28;20043;-81
2022/10/05 03:09:07;;;;;;;6.07;5.05;;;14.00;99.90;;;;;;5072667;28;20078;-82
2022/10/05 03:11:42;;;;;;;6.60;4.78;;;13.90;99.90;;;;;;5072737;28;20032;-81
2022/10/05 03:14:08;;;;;;;5.18;4.68;;;13.80;99.90;;;;;;5073037;28;20127;-81
2022/10/05 03:17:06;;;;;;;8.93;5.03;;;13.70;99.90;;;;;;5072835;28;20100;-81
2022/10/05 03:20:19;;;;;;;8.68;4.30;;;13.60;99.90;;;;;;5071433;28;20518;-81
2022/10/05 03:23:00;;;;;;;7.20;4.43;;;13.70;99.90;;;;;;5068813;28;20043;-81
2022/10/05 03:26:05;;;;;;;6.40;4.55;;;13.70;99.90;;;;;;5072317;28;20074;-81
2022/10/05 03:29:02;;;;;;;7.38;4.93;;;13.60;99.90;;;;;;5072700;28;20024;-81
2022/10/05 03:31:44;;;;;;;5.72;4.85;;;13.50;99.90;;;;;;5072453;28;20071;-81
2022/10/05 03:34:40;;;;;;;7.90;5.05;;;13.40;99.90;;;;;;5072679;28;20105;-81
2022/10/05 03:37:28;;;;;;;6.40;4.80;;;13.70;99.90;;;;;;5070574;28;20036;-81
2022/10/05 03:40:00;;;;;;;8.35;4.55;;;13.40;99.90;;;;;;5072244;28;20037;-81
2022/10/05 03:42:54;;;;;;;10.57;4.90;;;13.40;99.90;;;;;;5071961;28;20492;-82
2022/10/05 03:45:28;;;;;;;6.82;4.75;;;13.30;99.90;;;;;;5072744;28;20020;-81
2022/10/05 03:48:12;;;;;;;5.57;4.35;;;13.30;99.90;;;;;;5072099;28;20028;-81
2022/10/05 03:51:09;;;;;;;5.90;4.68;;;13.30;99.90;;;;;;5072318;28;20024;-81
2022/10/05 03:53:46;;;;;;;4.78;4.30;;;13.00;99.90;;;;;;5071974;28;20031;-81
2022/10/05 03:56:35;;;;;;;7.03;4.63;;;13.10;99.90;;;;;;5072338;28;20137;-81
2022/10/05 03:59:14;;;;;;;5.28;4.72;;;13.20;99.90;;;;;;5072344;28;20040;-81
2022/10/05 04:02:05;;;;;;;7.45;4.78;;;13.20;99.90;;;;;;5071976;28;20063;-81
2022/10/05 04:04:38;;;;;;;7.43;4.68;;;13.20;99.90;;;;;;5072540;28;20016;-81
2022/10/05 04:07:10;;;;;;;7.43;4.55;;;13.10;99.90;;;;;;5071888;28;20029;-81
2022/10/05 04:09:41;;;;;;;6.88;4.55;;;13.20;99.90;;;;;;5072126;28;20540;-81
2022/10/05 04:12:25;;;;;;;7.05;4.70;;;13.20;99.90;;;;;;5072063;28;20028;-81
2022/10/05 04:15:17;;;;;;;8.32;5.43;;;13.20;99.90;;;;;;5072098;28;20071;-81
2022/10/05 04:17:50;;;;;;;5.70;3.95;;;13.10;99.90;;;;;;5070682;28;20486;-81
2022/10/05 04:20:42;;;;;;;7.10;4.32;;;13.20;99.90;;;;;;5072305;28;20079;-81
2022/10/05 04:23:35;;;;;;;6.15;3.90;;;13.10;99.90;;;;;;5075103;28;20031;-81
2022/10/05 04:26:14;;;;;;;5.13;3.58;;;13.30;99.90;;;;;;5076294;28;20025;-81
2022/10/05 04:28:51;;;;;;;5.45;3.50;;;13.60;99.90;;;;;;5076226;28;20031;-81
2022/10/05 04:31:45;;;;;;;4.53;3.60;;;13.90;99.90;;;;;;5075813;28;20519;-81
2022/10/05 04:34:27;;;;;;;6.95;3.92;;;14.00;99.90;;;;;;5075337;28;20053;-81
2022/10/05 04:37:01;;;;;;;10.55;3.80;;;14.20;99.90;;;;;;5075525;28;20024;-81
2022/10/05 04:39:59;;;;;;;8.30;3.28;;;14.20;99.90;;;;;;5076350;28;20558;-81
2022/10/05 04:42:33;;;;;;;9.55;3.72;;;14.30;99.90;;;;;;5076024;28;20098;-81
2022/10/05 04:45:02;;;;;;;5.53;3.50;;;14.10;99.90;;;;;;5074393;28;20082;-82
2022/10/05 04:47:46;;;;;;;5.57;3.60;;;14.40;99.90;;;;;;5075833;28;20100;-82
2022/10/05 04:50:35;;;;;;;7.43;3.40;;;14.50;99.90;;;;;;5075205;28;20028;-81
2022/10/05 04:53:21;;;;;;;4.72;3.20;;;14.50;99.90;;;;;;5075526;28;20016;-82
2022/10/05 04:56:08;;;;;;;6.47;3.35;;;14.60;99.90;;;;;;5075509;28;20028;-82
2022/10/05 04:59:04;;;;;;;4.88;3.05;;;14.60;99.90;;;;;;5075418;28;20028;-81
2022/10/05 05:02:09;;;;;;;8.20;3.70;;;14.50;99.90;;;;;;5075445;28;20036;-81
2022/10/05 05:05:00;;;;;;;8.95;4.20;;;14.30;99.90;;;;;;5074368;28;20489;-82
2022/10/05 05:07:45;;;;;;;8.77;4.03;;;14.20;99.90;;;;;;5075309;28;20096;-82
2022/10/05 05:10:38;;;;;;;5.30;3.75;;;14.20;99.90;;;;;;5075596;28;20548;-81
2022/10/05 05:13:38;;;;;;;5.57;3.83;;;14.00;99.90;;;;;;5075331;28;20476;-82
2022/10/05 05:16:15;;;;;;;5.55;4.10;;;14.00;99.90;;;;;;5075158;28;20397;-81
2022/10/05 05:19:04;;;;;;;7.82;3.72;;;13.90;99.90;;;;;;5075096;28;20032;-82
2022/10/05 05:21:45;;;;;;;7.72;3.75;;;13.90;99.90;;;;;;5074515;28;20400;-82
2022/10/05 05:24:39;;;;;;;8.07;3.78;;;14.00;99.90;;;;;;5074900;28;20031;-81
2022/10/05 05:27:23;;;;;;;8.52;3.58;;;14.10;99.90;;;;;;5071375;28;20074;-81
2022/10/05 05:30:10;;;;;;;9.00;3.65;;;14.10;99.90;;;;;;5074639;28;20056;-81
2022/10/05 05:33:07;;;;;;;5.28;4.00;;;14.30;99.90;;;;;;5054849;28;20104;-84
2022/10/05 05:35:52;;;;;;;6.03;3.22;;;14.20;99.90;;;;;;5054430;28;20112;-81
2022/10/05 05:38:30;;;;;;;5.93;3.50;;;14.20;99.90;;;;;;5054776;28;20566;-82
2022/10/05 05:41:09;;;;;;;5.88;3.58;;;14.20;99.90;;;;;;5054454;28;20570;-81
2022/10/05 05:44:01;;;;;;;5.43;3.35;;;14.30;99.90;;;;;;5054968;28;20094;-81
2022/10/05 05:47:00;;;;;;;5.55;3.30;;;14.40;99.90;;;;;;5032552;28;20531;-82
2022/10/05 05:49:33;;;;;;;9.52;3.42;;;14.40;99.90;;;;;;5024985;28;20041;-82
2022/10/05 05:52:03;;;;;;;5.55;3.28;;;14.50;99.90;;;;;;5032591;28;20083;-81
2022/10/05 05:54:37;;;;;;;6.13;3.35;;;14.50;99.90;;;;;;5033541;28;20041;-77
2022/10/05 05:57:18;;;;;;;7.00;3.55;;;14.50;99.90;;;;;;5032243;28;20120;-77
2022/10/05 06:00:05;;;;;;;8.23;3.78;;;14.50;99.90;;;;;;5031952;28;20037;-77
2022/10/05 06:02:55;;;;;;;8.00;3.70;;;14.60;99.90;;;;;;5037605;28;20041;-77
2022/10/05 06:05:48;;;;;;;5.90;3.42;;;14.60;99.90;;;;;;5051974;28;20047;-76
2022/10/05 06:08:34;;;;;;;4.55;3.40;;;14.60;99.90;;;;;;5051851;28;20025;-77
2022/10/05 06:11:07;;;;;;;9.93;3.53;;;14.60;99.90;;;;;;5051682;28;20041;-76
2022/10/05 06:13:37;;;;;;;5.82;3.58;;;14.70;99.90;;;;;;5051910;28;20017;-77
2022/10/05 06:16:24;;;;;;;5.90;3.47;;;14.70;99.90;;;;;;5052063;28;20032;-77
2022/10/05 06:18:56;;;;;;;6.00;3.88;;;14.80;99.90;;;;;;5051364;28;20188;-76
2022/10/05 06:21:34;;;;;;;6.82;3.33;;;14.80;99.90;;;;;;5051916;28;20044;-77
2022/10/05 06:24:03;;;;;;;8.60;3.70;;;14.80;99.90;;;;;;5053238;28;20033;-76
2022/10/05 06:26:54;;;;;;;5.70;3.50;;;14.90;99.90;;;;;;5053858;28;20025;-77
2022/10/05 06:29:24;;;;;;;7.72;3.47;;;15.00;99.90;;;;;;5053856;28;20032;-76
2022/10/05 06:32:19;;;;;;;8.45;3.50;;;15.10;99.90;;;;;;5068412;28;20028;-77
2022/10/05 06:35:00;;;;;;;5.40;3.40;;;15.10;99.90;;;;;;5073512;28;20044;-76
2022/10/05 06:37:43;;;;;;;6.82;3.40;;;15.20;99.90;;;;;;5073482;28;20485;-77
2022/10/05 06:40:32;;;;;;;4.65;3.40;;;15.20;99.90;;;;;;5073588;28;20037;-76
2022/10/05 06:43:13;;;;;;;8.30;3.75;;;15.30;99.90;;;;;;5073445;28;20053;-76
2022/10/05 06:46:09;;;;;;;7.68;3.78;;;15.40;99.90;;;;;;5072756;28;20446;-76
2022/10/05 06:48:56;;;;;;;6.15;3.60;;;15.50;99.90;;;;;;5073171;28;20020;-77
2022/10/05 06:51:33;;;;;;;6.15;3.05;;;15.50;99.90;;;;;;5073446;28;20047;-77
2022/10/05 06:54:21;;;;;;;6.68;3.55;;;15.60;99.90;;;;;;5073244;28;20036;-77
2022/10/05 06:56:55;;;;;;;8.07;3.70;;;15.60;99.90;;;;;;5073401;28;20538;-77
2022/10/05 06:59:50;;;;;;;11.45;4.07;;;15.80;99.90;;;;;;5073259;28;20043;-77
2022/10/05 07:02:37;;;;;;;8.10;4.07;;;15.80;99.90;;;;;;5050157;28;20040;-77
2022/10/05 07:05:41;;;;;;;6.72;3.30;;;15.80;99.90;;;;;;5051267;28;20116;-77
2022/10/05 07:08:15;;;;;;;4.80;3.22;;;15.90;99.90;;;;;;5050804;28;20033;-77
2022/10/05 07:10:57;;;;;;;11.23;3.60;;;15.90;99.90;;;;;;5050819;28;20527;-77
2022/10/05 07:13:49;;;;;;;7.35;3.67;;;16.00;99.90;;;;;;5050595;28;20037;-77
2022/10/05 07:16:25;;;;;;;6.85;4.00;;;16.10;99.90;;;;;;4990909;28;20114;-77
2022/10/05 07:19:05;;;;;;;7.65;3.30;;;16.10;99.90;;;;;;4991353;28;20466;-77
2022/10/05 07:21:43;;;;;;;8.63;3.95;;;16.20;99.90;;;;;;4991240;28;20056;-77
2022/10/05 07:24:28;;;;;;;7.75;3.88;;;16.30;99.90;;;;;;4991353;28;20034;-77
2022/10/05 07:27:13;;;;;;;8.77;3.85;;;16.40;99.90;;;;;;4991206;28;20038;-77
2022/10/05 07:29:49;;;;;;;11.43;4.32;;;16.50;99.90;;;;;;4991187;28;20042;-77
2022/10/05 07:32:26;;;;;;;6.88;3.30;;;16.60;99.90;;;;;;4991302;28;20073;-77
2022/10/05 07:38:39;;;;;;;8.07;3.70;;;16.80;99.90;;;;;;4990309;28;20037;-77
2022/10/05 07:41:12;;;;;;;8.43;3.78;;;16.90;99.90;;;;;;4971469;28;20046;-77
2022/10/05 07:43:45;;;;;;;10.07;4.15;;;17.00;99.90;;;;;;4971494;28;20035;-77
2022/10/05 07:46:25;;;;;;;9.48;4.40;;;17.10;99.90;;;;;;4971223;28;20035;-77
2022/10/05 07:49:30;;;;;;;6.60;4.10;;;17.30;99.90;;;;;;4971308;28;20031;-77
2022/10/05 07:51:58;;;;;;;9.00;3.80;;;17.30;99.90;;;;;;4952830;28;20066;-77
2022/10/05 07:54:29;;;;;;;7.90;3.90;;;17.40;99.90;;;;;;4991101;28;20042;-77
2022/10/05 07:57:11;;;;;;;7.55;4.03;;;17.50;99.90;;;;;;4990619;28;20057;-77
2022/10/05 07:59:49;;;;;;;11.98;4.53;;;17.70;99.90;;;;;;4990300;28;20031;-77
2022/10/05 08:02:57;;;;;;;9.65;4.55;;;17.70;99.90;;;;;;4993872;28;20115;-77
2022/10/05 08:05:29;;;;;;;8.80;4.70;;;17.60;99.90;;;;;;4993719;28;20383;-77
2022/10/05 08:07:59;;;;;;;8.40;4.22;;;17.90;99.90;;;;;;5010343;28;20040;-77
2022/10/05 08:10:48;;;;;;;10.90;4.70;;;18.30;99.90;;;;;;5010120;28;20046;-77
2022/10/05 08:13:36;;;;;;;6.40;4.50;;;18.50;99.90;;;;;;5009826;28;20034;-77
2022/10/05 08:16:11;;;;;;;9.10;4.72;;;18.40;99.90;;;;;;5010151;28;20041;-77
2022/10/05 08:18:58;;;;;;;8.27;4.72;;;20.10;99.90;;;;;;5010120;28;20076;-77
2022/10/05 08:21:42;;;;;;;9.27;4.97;;;24.70;99.90;;;;;;5009803;28;20045;-77
2022/10/05 08:24:33;;;;;;;8.20;5.72;;;27.50;99.90;;;;;;5010046;28;20433;-77
2022/10/05 08:27:08;;;;;;;9.38;6.07;;;25.00;99.30;;;;;;5010078;28;20034;-77
2022/10/05 08:30:00;;;;;;;11.45;6.63;;;27.20;98.90;;;;;;5062708;28;20039;-77
2022/10/05 08:32:49;;;;;;;8.88;6.70;;;26.60;97.00;;;;;;5048993;28;20029;-77
2022/10/05 08:35:26;;;;;;;9.15;7.22;;;25.00;94.40;;;;;;5047757;28;20045;-78
2022/10/05 08:37:54;;;;;;;10.77;7.65;;;24.40;95.80;;;;;;5050744;28;20059;-77
2022/10/05 08:40:50;;;;;;;10.00;7.55;;;22.20;96.40;;;;;;5051678;28;20052;-77
2022/10/05 08:43:44;;;;;;;9.02;7.80;;;21.10;97.60;;;;;;5051493;28;20104;-77
2022/10/05 08:46:18;;;;;;;11.98;8.85;;;20.30;98.40;;;;;;5051943;28;20075;-77
2022/10/05 08:49:10;;;;;;;10.88;8.95;;;19.10;99.90;;;;;;5051921;28;20025;-77
2022/10/05 08:52:27;;;;;;;10.98;8.77;;;20.90;99.90;;;;;;5050316;28;20385;-77
2022/10/05 08:55:23;;;;;;;13.02;9.30;;;19.50;99.90;;;;;;5029520;28;20037;-77
2022/10/05 08:58:26;;;;;;;13.07;9.32;;;18.70;99.90;;;;;;5029259;28;20026;-77
2022/10/05 09:01:07;;;;;;;12.98;9.10;;;19.40;99.90;;;;;;5029532;28;20112;-77
2022/10/05 09:04:00;;;;;;;11.75;9.20;;;19.30;99.90;;;;;;5029511;28;20041;-77
2022/10/05 09:06:52;;;;;;;11.13;9.52;;;18.90;99.90;;;;;;5029413;28;20036;-77
2022/10/05 09:09:20;;;;;;;12.43;9.98;;;18.80;99.90;;;;;;5032857;28;20126;-77
2022/10/05 09:12:24;;;;;;;14.57;9.68;;;18.70;99.90;;;;;;5032618;28;20029;-77
2022/10/05 09:14:56;;;;;;;13.40;9.95;;;19.20;99.90;;;;;;5032402;28;20025;-77
2022/10/05 09:17:41;;;;;;;12.38;8.82;;;19.30;99.90;;;;;;5033138;28;20480;-77
2022/10/05 09:20:36;;;;;;;10.93;8.88;;;20.50;99.90;;;;;;5032988;28;20120;-77
2022/10/05 09:23:22;;;;;;;15.50;9.50;;;20.90;99.90;;;;;;5032880;28;20038;-78
2022/10/05 09:26:00;;;;;;;11.73;8.80;;;20.80;99.90;;;;;;5032534;28;20056;-77
2022/10/05 09:29:02;;;;;;;10.15;8.40;;;21.60;99.80;;;;;;5032867;28;20532;-78
2022/10/05 09:31:58;;;;;;;14.05;9.10;;;20.80;99.70;;;;;;5066984;28;20512;-77
2022/10/05 09:35:01;;;;;;;11.50;9.15;;;21.00;99.90;;;;;;5074740;28;20040;-77
2022/10/05 09:37:39;;;;;;;11.77;8.70;;;21.10;99.90;;;;;;5074821;28;20020;-77
2022/10/05 09:40:40;;;;;;;12.07;9.10;;;22.00;98.60;;;;;;5074695;28;20540;-77
2022/10/05 09:43:20;;;;;;;12.35;9.10;;;21.40;99.00;;;;;;5074760;28;20561;-77
2022/10/05 09:46:25;;;;;;;14.18;8.77;;;22.50;99.70;;;;;;5074813;28;20392;-77
2022/10/05 09:49:12;;;;;;;13.27;8.55;;;21.00;98.80;;;;;;5074593;28;20031;-78
2022/10/05 09:52:16;;;;;;;10.90;8.68;;;23.30;99.90;;;;;;5074458;28;20039;-78
2022/10/05 09:54:50;;;;;;;11.32;9.15;;;22.60;98.80;;;;;;5051868;28;20036;-77
2022/10/05 09:57:35;;;;;;;13.00;9.48;;;21.80;99.00;;;;;;5052130;28;20523;-77
2022/10/05 10:00:25;;;;;;;14.45;9.48;;;22.40;98.40;;;;;;5052219;28;20069;-77
2022/10/05 10:03:15;;;;;;;12.93;8.73;;;24.90;99.40;;;;;;5051822;28;20044;-77
2022/10/05 10:05:59;;;;;;;12.05;8.23;;;23.10;97.10;;;;;;5052261;28;20374;-77
2022/10/05 10:08:43;;;;;;;11.02;8.63;;;23.60;95.70;;;;;;5052444;28;20077;-77
2022/10/05 10:11:33;;;;;;;13.40;9.30;;;25.40;94.90;;;;;;5051561;28;20036;-77
2022/10/05 10:14:39;;;;;;;9.43;8.07;;;25.60;94.10;;;;;;5051827;28;20156;-77
2022/10/05 10:17:31;;;;;;;12.25;8.63;;;27.10;96.30;;;;;;5051305;28;20464;-77
2022/10/05 10:20:02;;;;;;;10.73;9.20;;;28.40;95.00;;;;;;5050458;28;20202;-78
2022/10/05 10:22:48;;;;;;;11.55;8.57;;;27.80;92.90;;;;;;5051575;28;20031;-78
2022/10/05 10:25:36;;;;;;;10.70;7.90;;;28.70;92.20;;;;;;5052026;28;20429;-77
2022/10/05 10:28:01;;;;;;;10.68;8.00;;;31.90;91.30;;;;;;5053918;28;20053;-78
2022/10/05 10:30:51;;;;;;;11.25;9.70;;;30.50;80.40;;;;;;5060198;28;20081;-78
2022/10/05 10:33:51;;;;;;;12.40;9.65;;;28.50;90.10;;;;;;5093751;28;20032;-78
2022/10/05 10:36:40;;;;;;;12.88;9.15;;;27.30;85.60;;;;;;5093772;28;20028;-78
2022/10/05 10:39:16;;;;;;;12.30;9.27;;;28.50;81.10;;;;;;5093485;28;20035;-77
2022/10/05 10:42:05;;;;;;;13.63;9.18;;;27.40;83.90;;;;;;5075889;28;20058;-78
2022/10/05 10:44:57;;;;;;;14.32;9.07;;;25.40;95.40;;;;;;5093372;28;20020;-77
2022/10/05 10:47:50;;;;;;;12.07;9.60;;;23.30;90.30;;;;;;5093556;28;20106;-77
2022/10/05 10:50:27;;;;;;;15.48;10.45;;;24.70;89.40;;;;;;5093665;28;20024;-78
2022/10/05 10:53:11;;;;;;;12.27;10.27;;;24.30;86.90;;;;;;5093455;28;20028;-78
2022/10/05 10:55:46;;;;;;;11.52;9.32;;;23.10;89.80;;;;;;5093605;28;20032;-77
2022/10/05 10:58:31;;;;;;;11.35;9.40;;;24.00;87.60;;;;;;5093382;28;20027;-78
2022/10/05 11:01:22;;;;;;;11.57;9.48;;;24.70;90.30;;;;;;5093031;28;20028;-78
2022/10/05 11:04:06;;;;;;;12.77;9.45;;;23.60;90.00;;;;;;5084497;28;20051;-78
2022/10/05 11:06:38;;;;;;;14.63;8.73;;;31.10;86.00;;;;;;5093213;28;20074;-78
2022/10/05 11:09:30;;;;;;;9.93;8.13;;;28.60;80.20;;;;;;5092908;28;20023;-78
2022/10/05 11:12:22;;;;;;;11.85;9.13;;;28.40;79.70;;;;;;5093057;28;20024;-78
2022/10/05 11:15:04;;;;;;;10.93;8.70;;;31.40;83.80;;;;;;5093098;28;20024;-78
2022/10/05 11:17:42;;;;;;;9.93;8.27;;;35.30;78.70;;;;;;5093149;28;20036;-78
2022/10/05 11:20:40;;;;;;;10.73;8.65;;;33.40;74.80;;;;;;5092954;28;20380;-78
2022/10/05 11:23:26;;;;;;;8.82;7.47;;;32.20;77.50;;;;;;5092951;28;20388;-78
2022/10/05 11:26:14;;;;;;;9.77;8.77;;;32.10;72.70;;;;;;5092905;28;20032;-79
2022/10/05 11:28:39;;;;;;;11.80;7.90;;;33.60;71.80;;;;;;5092834;28;20024;-78
2022/10/05 11:31:19;;;;;;;10.50;7.47;;;32.70;70.80;;;;;;5092747;28;20448;-78
2022/10/05 11:34:22;;;;;;;10.00;7.85;;;32.30;72.30;;;;;;5092559;28;20040;-78
2022/10/05 11:36:53;;;;;;;8.98;7.63;;;33.40;73.00;;;;;;5092618;28;20031;-78
2022/10/05 11:39:38;;;;;;;8.60;7.03;;;36.30;68.60;;;;;;5093109;28;20036;-79
2022/10/05 11:42:29;;;;;;;8.98;7.63;;;34.60;64.20;;;;;;5092929;28;20043;-78
2022/10/05 11:45:07;;;;;;;8.63;7.10;;;33.80;65.20;;;;;;5092648;28;20440;-78
2022/10/05 11:47:48;;;;;;;7.40;6.70;;;32.90;62.40;;;;;;5092641;28;20126;-79
2022/10/05 11:50:32;;;;;;;9.60;7.40;;;34.30;64.50;;;;;;5092403;28;20024;-79
2022/10/05 11:53:06;;;;;;;8.32;7.03;;;35.10;64.40;;;;;;5092617;28;20502;-78
2022/10/05 11:55:45;;;;;;;10.45;6.75;;;37.50;62.50;;;;;;5092594;28;20020;-79
2022/10/05 11:58:24;;;;;;;6.80;6.05;;;35.60;59.60;;;;;;5092477;28;20107;-78
2022/10/05 12:01:05;;;;;;;7.07;6.22;;;34.90;59.70;;;;;;5092569;28;20039;-79
2022/10/05 12:04:02;;;;;;;7.60;6.65;;;34.00;58.90;;;;;;5092312;28;20009;-78
2022/10/05 12:06:40;;;;;;;8.32;6.82;;;34.10;59.00;;;;;;5092239;28;20103;-79
2022/10/05 12:10:12;;;;;;;6.82;5.68;;;35.80;56.40;;;;;;5092271;28;20031;-79
2022/10/05 12:13:00;;;;;;;7.75;6.05;;;35.80;58.00;;;;;;5091884;28;20028;-79
2022/10/05 12:15:44;;;;;;;8.20;6.40;;;35.40;57.60;;;;;;5070405;28;20040;-79
2022/10/05 12:18:24;;;;;;;7.35;5.82;;;37.60;56.70;;;;;;5092146;28;20047;-79
2022/10/05 12:21:14;;;;;;;8.65;6.15;;;34.90;55.20;;;;;;5112232;28;20465;-79
2022/10/05 12:23:48;;;;;;;8.38;6.65;;;37.60;54.90;;;;;;5112575;28;20068;-79
2022/10/05 12:26:43;;;;;;;8.50;5.95;;;36.70;53.00;;;;;;5112557;28;20023;-79
2022/10/05 12:29:22;;;;;;;6.30;5.70;;;35.10;54.00;;;;;;5112803;28;20036;-79
2022/10/05 12:31:57;;;;;;;6.13;4.80;;;33.20;54.50;;;;;;5112734;28;20027;-79
2022/10/05 12:34:29;;;;;;;7.25;5.47;;;33.30;54.90;;;;;;5112013;28;20043;-79
2022/10/05 12:37:32;;;;;;;5.15;4.47;;;34.00;55.20;;;;;;5112541;28;20028;-79
2022/10/05 12:40:29;;;;;;;5.40;4.30;;;34.60;54.60;;;;;;5112204;28;20036;-79
2022/10/05 12:43:27;;;;;;;6.50;3.78;;;32.70;56.20;;;;;;5113866;28;20031;-79
2022/10/05 12:46:11;;;;;;;5.15;4.45;;;33.70;55.50;;;;;;5116814;28;20421;-79
2022/10/05 12:49:02;;;;;;;6.07;4.10;;;33.60;53.90;;;;;;5116469;28;20017;-79
2022/10/05 12:51:46;;;;;;;5.13;4.00;;;33.90;56.40;;;;;;5033587;28;20048;-79
2022/10/05 12:54:39;;;;;;;5.65;3.92;;;32.00;55.80;;;;;;5033584;28;20134;-79
2022/10/05 12:57:21;;;;;;;5.20;3.50;;;33.70;53.60;;;;;;5033398;28;20517;-79
2022/10/05 12:59:58;;;;;;;6.50;3.60;;;33.80;53.90;;;;;;5033259;28;20510;-79
2022/10/05 13:02:30;;;;;;;5.30;3.97;;;34.90;54.70;;;;;;5032971;28;20045;-79
2022/10/05 13:05:11;;;;;;;6.25;3.55;;;34.50;53.50;;;;;;5033030;28;20032;-79
2022/10/05 13:08:07;;;;;;;5.30;3.40;;;33.70;53.10;;;;;;5033238;28;20108;-79
2022/10/05 13:10:41;;;;;;;3.15;2.83;;;34.30;53.60;;;;;;5033803;28;20030;-79
2022/10/05 13:13:28;;;;;;;4.82;3.20;;;31.90;53.60;;;;;;5033354;28;20059;-80
2022/10/05 13:16:07;;;;;;;5.10;3.20;;;33.80;54.70;;;;;;5033158;28;20402;-80
2022/10/05 13:19:00;;;;;;;5.13;3.50;;;33.80;53.90;;;;;;5032781;28;20112;-79
2022/10/05 13:21:52;;;;;;;4.80;3.40;;;33.90;53.40;;;;;;5032879;28;20248;-79
2022/10/05 13:24:23;;;;;;;4.03;2.95;;;33.40;53.00;;;;;;5032858;28;20056;-79
2022/10/05 13:26:58;;;;;;;4.85;3.13;;;32.40;53.40;;;;;;5032778;28;20083;-79
2022/10/05 13:29:38;;;;;;;4.35;3.13;;;33.70;52.50;;;;;;5112270;28;20155;-79
2022/10/05 13:32:19;;;;;;;4.97;3.17;;;33.40;52.30;;;;;;5115733;28;20547;-79
2022/10/05 13:34:56;;;;;;;5.15;3.45;;;33.40;52.30;;;;;;5115507;28;20047;-79
2022/10/05 13:37:22;;;;;;;4.10;2.83;;;32.60;52.30;;;;;;5115563;28;20028;-79
2022/10/05 13:40:20;;;;;;;5.93;2.70;;;31.60;49.60;;;;;;5115600;28;20471;-79
2022/10/05 13:43:10;;;;;;;4.50;2.72;;;31.20;52.70;;;;;;5115860;28;20032;-79
2022/10/05 13:45:46;;;;;;;6.00;3.03;;;30.90;52.60;;;;;;5115908;28;20043;-79
2022/10/05 13:48:45;;;;;;;3.25;2.63;;;32.20;51.80;;;;;;5114992;28;20407;-79
2022/10/05 13:51:20;;;;;;;4.70;2.95;;;30.50;51.40;;;;;;5109672;28;20043;-79
2022/10/05 13:54:03;;;;;;;5.30;2.75;;;31.00;51.70;;;;;;5114919;28;20169;-79
2022/10/05 13:56:33;;;;;;;4.68;2.40;;;30.40;52.10;;;;;;5115031;28;20019;-79
2022/10/05 13:59:31;;;;;;;4.25;3.00;;;31.40;51.30;;;;;;5115018;28;20031;-79
2022/10/05 14:02:03;;;;;;;3.80;2.60;;;30.80;51.60;;;;;;5114428;28;20501;-79
2022/10/05 14:04:47;;;;;;;2.88;2.50;;;30.30;51.20;;;;;;5114765;28;20035;-79
2022/10/05 14:07:33;;;;;;;5.70;2.70;;;30.40;51.00;;;;;;5115073;28;20027;-79
2022/10/05 14:10:00;;;;;;;4.47;2.80;;;29.40;52.30;;;;;;5115263;28;20033;-79
2022/10/05 14:12:27;;;;;;;4.97;2.53;;;29.50;51.80;;;;;;5114769;28;20020;-79